createdAt,value
2022-12-14T00:03:05.122Z,32.80
2022-12-14T00:08:13.499Z,31.43
2022-12-14T00:13:21.166Z,37.17
2022-12-14T00:18:30.191Z,39.47
2022-12-14T00:24:05.940Z,36.83
2022-12-14T00:29:13.519Z,37.17
2022-12-14T00:34:21.354Z,33.83
2022-12-14T00:39:28.723Z,35.37
2022-12-14T00:44:36.485Z,32.87
2022-12-14T00:49:44.419Z,31.50
2022-12-14T00:54:53.553Z,33.13
2022-12-14T01:00:01.098Z,35.73
2022-12-14T01:05:08.896Z,33.50
2022-12-14T01:10:16.413Z,39.50
2022-12-14T01:15:23.934Z,35.83
2022-12-14T01:20:32.367Z,33.50
2022-12-14T01:25:40.611Z,31.87
2022-12-14T01:30:48.086Z,35.40
2022-12-14T01:35:55.690Z,35.87
2022-12-14T01:41:03.553Z,31.07
2022-12-14T01:46:11.538Z,35.67
2022-12-14T01:51:18.975Z,29.80
2022-12-14T01:56:26.777Z,27.20
2022-12-14T02:01:35.422Z,26.17
2022-12-14T02:06:44.222Z,28.53
2022-12-14T02:11:55.909Z,25.97
2022-12-14T02:17:03.268Z,30.83
2022-12-14T02:22:20.368Z,31.40
2022-12-14T02:28:03.336Z,35.90
2022-12-14T02:33:35.618Z,30.63
2022-12-14T02:39:04.508Z,31.70
2022-12-14T02:44:21.099Z,30.00
2022-12-14T02:49:43.846Z,26.70
2022-12-14T02:54:56.432Z,35.47
2022-12-14T03:00:05.898Z,34.17
2022-12-14T03:05:13.518Z,33.73
2022-12-14T03:10:41.738Z,31.90
2022-12-14T03:15:53.227Z,32.33
2022-12-14T03:21:00.710Z,32.47
2022-12-14T03:26:14.635Z,29.83
2022-12-14T03:31:27.844Z,31.37
2022-12-14T03:36:50.987Z,29.63
2022-12-14T03:42:18.650Z,28.70
2022-12-14T03:47:49.394Z,25.97
2022-12-14T03:53:12.157Z,29.67
2022-12-14T03:58:35.176Z,31.40
2022-12-14T04:03:54.805Z,28.63
2022-12-14T04:09:24.006Z,33.73
2022-12-14T04:14:58.597Z,37.03
2022-12-14T04:20:17.085Z,35.87
2022-12-14T04:25:45.160Z,40.57
2022-12-14T04:30:54.514Z,37.50
2022-12-14T04:36:02.086Z,27.53
2022-12-14T04:41:10.451Z,38.37
2022-12-14T04:46:19.455Z,31.43
2022-12-14T04:51:35.639Z,37.40
2022-12-14T04:56:49.429Z,34.15
2022-12-14T05:02:22.971Z,38.13
2022-12-14T05:08:08.892Z,38.63
2022-12-14T05:13:29.017Z,44.60
2022-12-14T05:18:37.324Z,41.30
2022-12-14T05:23:46.612Z,21.57
2022-12-14T05:28:55.592Z,28.43
2022-12-14T05:34:03.137Z,39.80
2022-12-14T05:39:10.937Z,42.63
2022-12-14T05:44:19.235Z,38.13
2022-12-14T05:49:27.769Z,36.60
2022-12-14T05:54:37.641Z,36.83
2022-12-14T05:59:45.344Z,35.97
2022-12-14T06:04:52.706Z,38.43
2022-12-14T06:10:01.272Z,38.57
2022-12-14T06:15:09.429Z,35.53
2022-12-14T06:20:16.968Z,33.83
2022-12-14T06:25:24.456Z,34.80
2022-12-14T06:30:32.096Z,37.57
2022-12-14T06:35:45.172Z,33.20
2022-12-14T06:40:52.704Z,36.20
2022-12-14T06:46:00.613Z,35.97
2022-12-14T06:51:08.275Z,36.13
2022-12-14T06:56:18.643Z,36.03
2022-12-14T07:01:26.635Z,39.53
2022-12-14T07:06:36.715Z,37.30
2022-12-14T07:11:44.091Z,35.97
2022-12-14T07:16:52.645Z,32.63
2022-12-14T07:22:01.731Z,30.73
2022-12-14T07:27:09.441Z,31.03
2022-12-14T07:32:17.275Z,38.00
2022-12-14T07:37:26.141Z,37.83
2022-12-14T07:42:33.614Z,41.90
2022-12-14T07:47:41.620Z,44.07
2022-12-14T07:52:49.246Z,52.83
2022-12-14T07:57:56.789Z,43.70
2022-12-14T08:03:05.358Z,45.83
2022-12-14T08:08:13.144Z,43.83
2022-12-14T08:13:21.035Z,45.20
2022-12-14T08:18:29.604Z,45.07
2022-12-14T08:23:38.378Z,45.30
2022-12-14T08:28:45.973Z,49.30
2022-12-14T08:33:56.341Z,40.93
2022-12-14T08:39:09.311Z,43.60
2022-12-14T08:44:20.168Z,43.13
2022-12-14T08:49:32.064Z,50.63
2022-12-14T08:54:36.654Z,46.53
2022-12-14T09:00:01.193Z,43.90
2022-12-14T09:04:55.024Z,46.60
2022-12-14T09:10:03.403Z,42.80
2022-12-14T09:15:12.145Z,43.13
2022-12-14T09:20:19.649Z,42.53
2022-12-14T09:25:27.123Z,39.97
2022-12-14T09:30:34.637Z,48.17
2022-12-14T09:35:42.251Z,54.63
2022-12-14T09:40:58.774Z,44.80
2022-12-14T09:46:22.515Z,43.17
2022-12-14T09:51:36.882Z,50.30
2022-12-14T09:56:45.669Z,51.80
2022-12-14T10:02:30.450Z,43.60
2022-12-14T10:07:20.446Z,46.90
2022-12-14T10:12:42.977Z,49.17
2022-12-14T10:18:33.904Z,44.93
2022-12-14T10:23:23.707Z,42.47
2022-12-14T10:28:44.663Z,46.47
2022-12-14T10:33:53.415Z,41.70
2022-12-14T10:39:03.514Z,29.23
2022-12-14T10:44:19.353Z,39.87
2022-12-14T10:49:30.167Z,28.70
2022-12-14T10:54:46.521Z,36.57
2022-12-14T11:00:07.732Z,35.63
2022-12-14T11:05:06.727Z,33.60
2022-12-14T11:10:20.987Z,37.37
2022-12-14T11:15:34.834Z,35.33
2022-12-14T11:21:06.922Z,35.27
2022-12-14T11:26:32.752Z,31.57
2022-12-14T11:31:41.359Z,33.27
2022-12-14T11:36:49.556Z,30.17
2022-12-14T11:42:03.217Z,32.43
2022-12-14T11:47:19.582Z,34.83
2022-12-14T11:52:31.222Z,31.87
2022-12-14T11:57:44.654Z,33.27
2022-12-14T12:02:56.584Z,33.50
2022-12-14T12:08:04.104Z,29.33
2022-12-14T12:13:32.456Z,24.97
2022-12-14T12:18:48.069Z,25.90
2022-12-14T12:24:19.826Z,25.10
2022-12-14T12:29:40.543Z,25.77
2022-12-14T12:34:50.866Z,26.17
2022-12-14T12:40:09.006Z,25.40
2022-12-14T12:45:38.480Z,24.60
2022-12-14T12:50:50.181Z,22.27
2022-12-14T12:56:10.763Z,25.10
2022-12-14T13:01:24.383Z,22.30
2022-12-14T13:06:44.425Z,20.97
2022-12-14T13:11:51.793Z,21.80
2022-12-14T13:17:06.691Z,15.73
2022-12-14T13:22:15.698Z,20.87
2022-12-14T13:27:35.606Z,21.80
2022-12-14T13:33:10.759Z,18.97
2022-12-14T13:38:33.645Z,19.73
2022-12-14T13:43:55.234Z,22.07
2022-12-14T13:49:04.941Z,22.83
2022-12-14T13:54:22.886Z,24.03
2022-12-14T13:59:33.433Z,22.10
2022-12-14T14:04:42.583Z,25.23
2022-12-14T14:10:01.816Z,25.77
2022-12-14T14:15:24.287Z,26.90
2022-12-14T14:20:43.179Z,21.57
2022-12-14T14:25:53.563Z,29.07
2022-12-14T14:31:02.717Z,31.27
2022-12-14T14:36:33.825Z,32.60
2022-12-14T14:41:44.813Z,29.03
2022-12-14T14:46:52.871Z,22.20
2022-12-14T14:52:21.067Z,25.23
2022-12-14T14:57:53.429Z,28.93
2022-12-14T15:03:01.789Z,25.87
2022-12-14T15:08:42.957Z,25.47
2022-12-14T15:13:56.614Z,24.50
2022-12-14T15:19:23.023Z,24.67
2022-12-14T15:24:30.877Z,25.23
2022-12-14T15:29:38.298Z,27.90
2022-12-14T15:34:55.456Z,27.97
2022-12-14T15:40:08.356Z,27.07
2022-12-14T15:45:19.085Z,25.50
2022-12-14T15:50:30.180Z,24.47
2022-12-14T15:55:41.981Z,24.80
2022-12-14T16:00:52.372Z,27.63
2022-12-14T16:06:00.877Z,24.30
2022-12-14T16:11:20.910Z,23.20
2022-12-14T16:16:29.708Z,27.33
2022-12-14T16:21:37.538Z,28.53
2022-12-14T16:26:45.039Z,25.17
2022-12-14T16:31:53.896Z,23.27
2022-12-14T16:37:31.760Z,23.50
2022-12-14T16:42:23.232Z,24.23
2022-12-14T16:47:36.855Z,27.33
2022-12-14T16:52:47.609Z,25.83
2022-12-14T16:58:02.728Z,28.30
2022-12-14T17:03:29.494Z,28.17
2022-12-14T17:08:39.103Z,30.77
2022-12-14T17:13:49.556Z,27.63
2022-12-14T17:19:03.943Z,23.97
2022-12-14T17:24:20.888Z,22.77
2022-12-14T17:29:31.016Z,24.50
2022-12-14T17:34:43.164Z,22.87
2022-12-14T17:39:52.795Z,30.93
2022-12-14T17:45:01.920Z,31.17
2022-12-14T17:50:12.194Z,28.77
2022-12-14T17:55:25.371Z,26.17
2022-12-14T18:00:50.902Z,27.00
2022-12-14T18:05:59.601Z,26.57
2022-12-14T18:11:13.643Z,26.50
2022-12-14T18:16:19.316Z,25.97
2022-12-14T18:21:28.934Z,28.97
2022-12-14T18:26:37.266Z,31.37
2022-12-14T18:31:46.266Z,28.17
2022-12-14T18:36:58.316Z,30.10
2022-12-14T18:42:08.156Z,33.37
2022-12-14T18:47:40.825Z,33.30
2022-12-14T18:52:27.076Z,32.97
2022-12-14T18:57:35.147Z,33.90
2022-12-14T19:02:44.163Z,30.30
2022-12-14T19:07:53.339Z,34.43
2022-12-14T19:13:01.205Z,32.30
2022-12-14T19:18:09.311Z,34.17
2022-12-14T19:23:17.715Z,36.60
2022-12-14T19:28:32.475Z,36.83
2022-12-14T19:33:35.436Z,34.73
2022-12-14T19:38:43.323Z,35.30
2022-12-14T19:43:51.612Z,35.80
2022-12-14T19:49:00.112Z,36.93
2022-12-14T19:54:07.693Z,39.53
2022-12-14T19:59:16.482Z,38.13
2022-12-14T20:04:26.611Z,39.50
2022-12-14T20:09:40.108Z,38.90
2022-12-14T20:14:49.529Z,44.70
2022-12-14T20:19:57.862Z,50.63
2022-12-14T20:25:07.610Z,43.37
2022-12-14T20:30:15.390Z,43.73
2022-12-14T20:35:23.240Z,43.30
2022-12-14T20:40:36.364Z,43.13
2022-12-14T20:45:41.838Z,40.83
2022-12-14T20:50:49.287Z,39.77
2022-12-14T20:55:58.706Z,37.03
2022-12-14T21:01:16.281Z,45.70
2022-12-14T21:06:24.464Z,48.70
2022-12-14T21:11:52.543Z,45.57
2022-12-14T21:17:01.027Z,44.10
2022-12-14T21:22:11.082Z,42.87
2022-12-14T21:27:21.804Z,43.73
2022-12-14T21:32:29.408Z,39.90
2022-12-14T21:37:39.059Z,40.03
2022-12-14T21:42:47.660Z,39.00
2022-12-14T21:47:56.036Z,38.80
2022-12-14T21:53:03.491Z,34.03
2022-12-14T21:58:17.753Z,33.47
2022-12-14T22:03:25.247Z,32.87
2022-12-14T22:08:33.450Z,36.83
2022-12-14T22:13:42.226Z,34.90
2022-12-14T22:18:50.384Z,37.07
2022-12-14T22:23:59.187Z,43.30
2022-12-14T22:29:07.775Z,50.20
2022-12-14T22:34:24.445Z,49.83
2022-12-14T22:39:32.225Z,48.75
2022-12-14T22:44:40.695Z,49.67
2022-12-14T22:49:48.027Z,40.47
2022-12-14T22:54:55.387Z,44.07
2022-12-14T23:00:07.453Z,40.20
2022-12-14T23:05:14.972Z,44.03
2022-12-14T23:10:40.696Z,48.20
2022-12-14T23:16:06.731Z,44.70
2022-12-14T23:21:32.847Z,46.87
2022-12-14T23:27:00.969Z,42.07
2022-12-14T23:32:26.302Z,40.67
2022-12-14T23:37:54.887Z,48.13
2022-12-14T23:43:35.141Z,46.13
2022-12-14T23:49:00.835Z,45.80
2022-12-14T23:54:26.525Z,41.53
2022-12-14T23:59:51.554Z,40.57
